Time;durP1;ratioP1;P1;durP2;ratioP2;P2;SDS_P1;SDS_P2;PMS_P1;PMS_P2;Temp;Humidity;BMP_temperature;BMP_pressure;BME280_temperature;BME280_humidity;BME280_pressure;Samples;Min_cycle;Max_cycle;Signal;HPM_P1;HPM_P2
2021/10/18 00:01:47;;;;;;;8.73;5.80;;;;;;;17.07;47.13;101976.50;5032567;28;20049;-58
2021/10/18 00:04:12;;;;;;;9.38;5.57;;;;;;;17.03;47.29;101977.81;5033106;28;20033;-58
2021/10/18 00:06:38;;;;;;;8.93;5.07;;;;;;;16.99;47.12;101976.38;5032556;28;20018;-58
2021/10/18 00:09:03;;;;;;;10.23;5.85;;;;;;;16.99;47.37;101976.38;5032892;28;20029;-58
2021/10/18 00:11:29;;;;;;;9.18;5.80;;;;;;;16.96;47.23;101973.94;5032773;28;20026;-58
2021/10/18 00:13:55;;;;;;;13.85;6.20;;;;;;;16.93;45.74;101969.69;5032828;28;20398;-58
2021/10/18 00:16:21;;;;;;;12.82;6.03;;;;;;;16.87;46.09;101964.84;5032676;28;20044;-58
2021/10/18 00:18:46;;;;;;;14.07;6.53;;;;;;;16.88;46.53;101967.41;5015310;28;20397;-58
2021/10/18 00:21:11;;;;;;;11.82;6.32;;;;;;;16.87;46.34;101973.81;5015054;28;20021;-58
2021/10/18 00:23:37;;;;;;;10.38;5.80;;;;;;;16.84;45.65;101974.09;5032589;28;20033;-58
2021/10/18 00:26:03;;;;;;;7.75;4.45;;;;;;;16.79;45.94;101970.97;5032520;28;20099;-58
2021/10/18 00:28:28;;;;;;;12.65;5.40;;;;;;;16.78;47.13;101977.34;5032697;28;20112;-58
2021/10/18 00:30:53;;;;;;;10.98;5.82;;;;;;;16.74;47.29;101980.50;5015244;28;20026;-58
2021/10/18 00:33:19;;;;;;;10.55;5.68;;;;;;;16.64;45.92;101972.34;5032338;28;20036;-58
2021/10/18 00:35:45;;;;;;;12.63;5.85;;;;;;;16.68;46.65;101983.75;5032445;28;20029;-58
2021/10/18 00:38:10;;;;;;;7.60;5.13;;;;;;;16.65;45.64;101979.50;5030078;28;20532;-58
2021/10/18 00:40:36;;;;;;;9.75;5.35;;;;;;;16.62;47.24;101987.03;5029785;28;20136;-58
2021/10/18 00:43:01;;;;;;;10.77;5.20;;;;;;;16.56;46.27;101988.44;5032406;28;20456;-58
2021/10/18 00:45:27;;;;;;;9.82;5.93;;;;;;;16.52;46.76;101981.59;5032573;28;20473;-58
2021/10/18 00:47:52;;;;;;;11.23;5.55;;;;;;;16.46;45.74;101975.84;5032415;28;20386;-58
2021/10/18 00:50:17;;;;;;;8.70;4.65;;;;;;;16.39;46.17;101980.13;5032490;28;20028;-58
2021/10/18 00:52:43;;;;;;;11.52;5.85;;;;;;;16.34;45.78;101964.28;5032235;28;20081;-58
2021/10/18 00:55:09;;;;;;;10.90;5.30;;;;;;;16.29;45.36;101975.53;5032262;28;20030;-58
2021/10/18 00:57:35;;;;;;;11.50;5.28;;;;;;;16.26;46.82;101983.06;5032292;28;20048;-58
2021/10/18 01:00:01;;;;;;;9.32;5.10;;;;;;;16.21;47.11;101978.09;5032319;28;20033;-58
2021/10/18 01:02:26;;;;;;;8.55;4.95;;;;;;;16.18;46.85;101978.34;5015872;28;20061;-58
2021/10/18 01:04:52;;;;;;;11.23;5.97;;;;;;;16.14;46.79;101970.63;5036191;28;20525;-58
2021/10/18 01:07:17;;;;;;;11.00;5.65;;;;;;;16.12;46.55;101978.91;5036057;28;20029;-59
2021/10/18 01:09:43;;;;;;;10.23;5.68;;;;;;;16.09;45.42;101987.28;5018157;28;20021;-58
2021/10/18 01:12:09;;;;;;;18.05;5.25;;;;;;;16.04;45.66;101981.44;5035877;28;20393;-58
2021/10/18 01:14:34;;;;;;;8.32;4.82;;;;;;;16.02;47.15;101986.13;5035668;28;20028;-58
2021/10/18 01:16:59;;;;;;;8.50;5.60;;;;;;;16.00;47.19;101989.94;5035890;28;20013;-58
2021/10/18 01:19:26;;;;;;;10.98;5.40;;;;;;;15.98;47.14;102002.72;5035864;28;20084;-58
2021/10/18 01:21:56;;;;;;;13.27;5.28;;;;;;;15.94;47.01;101995.91;5035973;28;20033;-58
2021/10/18 01:24:22;;;;;;;9.07;5.63;;;;;;;15.92;46.25;102000.56;5036094;28;20466;-58
2021/10/18 01:26:47;;;;;;;12.52;4.55;;;;;;;15.90;45.66;101999.84;5035653;28;20061;-58
2021/10/18 01:29:13;;;;;;;6.85;4.30;;;;;;;15.86;45.74;101992.97;5035447;28;20065;-58
2021/10/18 01:31:40;;;;;;;9.35;4.80;;;;;;;15.82;45.34;101996.97;5035366;28;20063;-58
2021/10/18 01:34:05;;;;;;;8.20;4.85;;;;;;;15.77;46.87;101993.81;5035422;28;20029;-59
2021/10/18 01:36:31;;;;;;;9.02;4.45;;;;;;;15.68;46.62;101985.53;5001467;28;20036;-58
2021/10/18 01:38:57;;;;;;;9.88;5.05;;;;;;;15.68;46.37;101990.94;5018078;28;20532;-58
2021/10/18 01:41:22;;;;;;;9.70;4.97;;;;;;;15.65;46.83;101991.19;5034274;28;20059;-58
2021/10/18 01:43:47;;;;;;;8.70;4.32;;;;;;;15.63;45.88;101990.44;5035200;28;20041;-58
2021/10/18 01:46:13;;;;;;;7.32;3.47;;;;;;;15.59;47.01;101986.31;5035100;28;20041;-58
2021/10/18 01:48:38;;;;;;;7.32;4.45;;;;;;;15.52;45.75;101982.41;5035083;28;20049;-58
2021/10/18 01:51:07;;;;;;;6.90;3.88;;;;;;;15.52;46.39;101979.72;5035161;28;20033;-58
2021/10/18 01:53:32;;;;;;;3.65;2.13;;;;;;;15.51;46.81;101982.56;5034889;28;20025;-58
2021/10/18 01:55:58;;;;;;;3.80;1.60;;;;;;;15.46;46.75;101972.19;5035003;28;20524;-58
2021/10/18 01:58:23;;;;;;;2.33;1.90;;;;;;;15.39;46.12;101962.84;5034892;28;20425;-58
2021/10/18 02:00:48;;;;;;;6.18;3.35;;;;;;;15.38;45.50;101958.44;5035297;28;20029;-58
2021/10/18 02:03:14;;;;;;;7.45;3.05;;;;;;;15.35;45.38;101956.03;5034597;28;20053;-58
2021/10/18 02:05:39;;;;;;;6.60;2.90;;;;;;;15.32;46.39;101961.69;5035412;28;20045;-58
2021/10/18 02:08:05;;;;;;;5.78;3.05;;;;;;;15.28;45.91;101960.22;5017353;28;20474;-58
2021/10/18 02:10:30;;;;;;;6.78;4.10;;;;;;;15.30;45.70;101969.03;5017019;28;20068;-58
2021/10/18 02:12:56;;;;;;;7.68;4.43;;;;;;;15.28;46.53;101962.91;5017127;28;20052;-58
2021/10/18 02:15:21;;;;;;;8.85;4.95;;;;;;;15.27;45.91;101963.06;5034145;28;20520;-58
2021/10/18 02:17:46;;;;;;;7.70;3.95;;;;;;;15.24;46.57;101964.19;5034393;28;20024;-58
2021/10/18 02:20:13;;;;;;;9.73;4.18;;;;;;;15.19;46.02;101955.59;5034597;28;20117;-58
2021/10/18 02:22:39;;;;;;;9.85;4.68;;;;;;;15.21;47.19;101967.16;5034621;28;20021;-58
2021/10/18 02:25:06;;;;;;;6.63;4.53;;;;;;;15.20;46.73;101975.34;5034786;28;20500;-58
2021/10/18 02:27:31;;;;;;;8.23;4.28;;;;;;;15.16;45.81;101961.25;5034304;28;20053;-58
2021/10/18 02:29:57;;;;;;;12.85;5.00;;;;;;;15.17;46.19;101965.69;5034344;28;20064;-58
2021/10/18 02:32:22;;;;;;;9.43;5.05;;;;;;;15.09;46.29;101960.94;5034693;28;20095;-58
2021/10/18 02:34:48;;;;;;;9.63;5.03;;;;;;;15.14;46.39;101968.63;5016559;28;20021;-58
2021/10/18 02:37:13;;;;;;;7.25;2.90;;;;;;;15.11;46.48;101968.91;5034193;28;20414;-58
2021/10/18 02:39:38;;;;;;;6.25;3.72;;;;;;;15.09;45.64;101960.94;5034060;28;20026;-58
2021/10/18 02:42:04;;;;;;;9.32;4.05;;;;;;;15.07;46.00;101964.75;5034504;28;20041;-58
2021/10/18 02:44:29;;;;;;;7.75;3.75;;;;;;;14.99;45.82;101953.78;5032919;28;20102;-58
2021/10/18 02:46:55;;;;;;;10.05;4.38;;;;;;;15.04;47.18;101963.19;5034102;28;20502;-58
2021/10/18 02:49:21;;;;;;;8.88;4.75;;;;;;;15.01;45.81;101967.97;5033996;28;20090;-58
2021/10/18 02:51:48;;;;;;;6.88;4.28;;;;;;;14.99;46.50;101964.56;5017027;28;20033;-58
2021/10/18 02:54:13;;;;;;;7.43;4.13;;;;;;;14.98;45.74;101968.22;5032650;28;20411;-58
2021/10/18 02:56:39;;;;;;;7.45;4.03;;;;;;;14.95;45.93;101968.50;5033828;28;20021;-58
2021/10/18 02:59:04;;;;;;;8.00;3.40;;;;;;;14.94;46.87;101972.16;5034415;28;20037;-58
2021/10/18 03:01:29;;;;;;;5.95;3.72;;;;;;;14.92;46.54;101966.03;5033759;28;20175;-58
2021/10/18 03:03:55;;;;;;;7.30;3.35;;;;;;;14.89;46.93;101963.59;5033866;28;20266;-58
2021/10/18 03:06:20;;;;;;;6.75;2.88;;;;;;;14.87;46.83;101962.88;5033700;28;20061;-58
2021/10/18 03:08:45;;;;;;;5.30;3.67;;;;;;;14.83;45.94;101959.59;5033763;28;20040;-58
2021/10/18 03:11:11;;;;;;;6.82;4.32;;;;;;;14.80;45.99;101959.84;5033700;28;20022;-59
2021/10/18 03:13:36;;;;;;;10.98;4.03;;;;;;;14.78;45.78;101951.03;5034193;28;20029;-58
2021/10/18 03:16:01;;;;;;;6.90;3.90;;;;;;;14.76;46.53;101953.00;5033440;28;20056;-58
2021/10/18 03:18:27;;;;;;;7.70;3.28;;;;;;;14.72;45.90;101954.22;5032043;28;20028;-58
2021/10/18 03:20:52;;;;;;;3.88;2.05;;;;;;;14.69;46.17;101950.94;5015783;28;20036;-58
2021/10/18 03:23:18;;;;;;;4.45;2.35;;;;;;;14.64;46.71;101947.75;5033481;28;20101;-58
2021/10/18 03:25:44;;;;;;;5.75;2.85;;;;;;;14.57;45.75;101945.56;5032539;28;20056;-58
2021/10/18 03:28:09;;;;;;;4.25;2.70;;;;;;;14.55;46.68;101952.94;5015423;28;20073;-58
2021/10/18 03:30:34;;;;;;;6.50;2.65;;;;;;;14.52;46.38;101945.09;5033169;28;20026;-58
2021/10/18 03:33:00;;;;;;;5.20;3.13;;;;;;;14.51;46.95;101953.34;5033246;28;20036;-59
2021/10/18 03:35:25;;;;;;;7.78;3.63;;;;;;;14.45;46.57;101941.22;5033459;28;20049;-58
2021/10/18 03:37:51;;;;;;;4.68;3.08;;;;;;;14.47;45.72;101941.06;5032998;28;20029;-58
2021/10/18 03:40:16;;;;;;;5.22;3.20;;;;;;;14.45;46.78;101941.22;5033216;28;20037;-58
2021/10/18 03:42:42;;;;;;;8.02;3.65;;;;;;;14.43;45.92;101940.47;5033258;28;20490;-58
2021/10/18 03:45:09;;;;;;;6.30;3.20;;;;;;;14.43;46.91;101940.47;5033126;28;20021;-58
2021/10/18 03:47:34;;;;;;;7.53;3.50;;;;;;;14.39;46.49;101938.16;5015273;28;20022;-58
2021/10/18 03:50:00;;;;;;;9.68;4.30;;;;;;;14.44;46.74;101944.88;5034092;28;20076;-58
2021/10/18 03:52:25;;;;;;;9.90;4.60;;;;;;;14.44;46.98;101944.88;5032855;28;20597;-58
2021/10/18 03:54:51;;;;;;;11.23;4.70;;;;;;;14.45;46.62;101949.31;5015170;28;20041;-58
2021/10/18 03:57:16;;;;;;;7.45;4.00;;;;;;;14.44;45.72;101946.72;5032973;28;20053;-59
2021/10/18 03:59:42;;;;;;;7.53;4.60;;;;;;;14.49;46.66;101955.28;5032721;28;20033;-58
2021/10/18 04:02:08;;;;;;;11.52;4.85;;;;;;;14.49;46.02;101955.28;5032516;28;20395;-58
2021/10/18 04:04:33;;;;;;;7.63;4.72;;;;;;;14.51;47.02;101959.59;5032877;28;20052;-58
2021/10/18 04:06:59;;;;;;;12.68;6.10;;;;;;;14.51;46.80;101959.59;5015011;28;20029;-58
2021/10/18 04:09:24;;;;;;;11.88;4.70;;;;;;;14.51;46.85;101964.97;5032484;28;20033;-58
2021/10/18 04:11:49;;;;;;;7.97;5.03;;;;;;;14.51;46.42;101966.81;5032721;28;20438;-58
2021/10/18 04:14:15;;;;;;;7.80;3.95;;;;;;;14.48;46.57;101962.53;5032417;28;20036;-58
2021/10/18 04:16:40;;;;;;;9.95;4.82;;;;;;;14.42;46.71;101952.25;5032574;28;20021;-58
2021/10/18 04:19:06;;;;;;;7.35;3.67;;;;;;;14.43;47.23;101967.44;5032704;28;20476;-58
2021/10/18 04:21:31;;;;;;;5.40;3.70;;;;;;;14.37;45.45;101957.19;5014846;28;20036;-58
2021/10/18 04:23:57;;;;;;;7.22;3.80;;;;;;;14.35;46.07;101969.06;5015147;28;20466;-58
2021/10/18 04:26:22;;;;;;;7.82;3.97;;;;;;;14.30;46.53;101972.09;5032835;28;20490;-58
2021/10/18 04:28:47;;;;;;;8.75;4.57;;;;;;;14.28;46.89;101978.59;5032531;28;20151;-58
2021/10/18 04:31:13;;;;;;;7.25;3.80;;;;;;;14.25;46.72;101977.00;5032515;28;20049;-58
2021/10/18 04:33:38;;;;;;;7.25;4.63;;;;;;;14.23;46.60;101976.28;5032655;28;20028;-58
2021/10/18 04:36:04;;;;;;;8.98;5.25;;;;;;;14.21;46.94;101978.22;5032620;28;20029;-58
2021/10/18 04:38:29;;;;;;;8.38;4.82;;;;;;;14.20;46.94;101998.09;5034776;28;20029;-58
2021/10/18 04:40:55;;;;;;;9.07;4.47;;;;;;;14.21;46.95;101991.69;5036604;28;20029;-58
2021/10/18 04:43:21;;;;;;;9.18;4.70;;;;;;;14.17;46.14;101989.38;5018895;28;20064;-58
2021/10/18 04:45:46;;;;;;;10.68;5.20;;;;;;;14.21;47.05;101999.78;5036314;28;20029;-58
2021/10/18 04:48:11;;;;;;;10.18;5.15;;;;;;;14.18;46.30;101989.25;5034899;28;20028;-58
2021/10/18 04:50:37;;;;;;;11.25;5.43;;;;;;;14.19;46.92;101987.41;5018686;28;20029;-58
2021/10/18 04:53:02;;;;;;;13.50;5.63;;;;;;;14.15;46.01;101992.22;5018538;28;20067;-58
2021/10/18 04:55:28;;;;;;;7.68;4.78;;;;;;;14.14;46.94;102001.25;5038439;28;20029;-58
2021/10/18 04:57:56;;;;;;;10.50;3.88;;;;;;;14.07;46.76;101991.94;5037115;28;20063;-58
2021/10/18 05:00:27;;;;;;;8.02;4.38;;;;;;;14.08;46.57;101999.06;5037654;28;20029;-58
2021/10/18 05:02:56;;;;;;;7.45;3.85;;;;;;;14.05;45.96;101993.91;5019805;28;20505;-58
2021/10/18 05:05:25;;;;;;;5.82;4.10;;;;;;;13.96;46.14;101981.16;5021614;28;20048;-58
2021/10/18 05:08:08;;;;;;;11.73;5.13;;;;;;;14.00;47.15;101985.34;5037552;28;20026;-58
2021/10/18 05:10:35;;;;;;;10.50;4.82;;;;;;;13.98;47.05;101996.25;5037895;28;20021;-58
2021/10/18 05:13:01;;;;;;;8.88;4.97;;;;;;;13.97;46.69;101991.84;5038233;28;20108;-59
2021/10/18 05:15:26;;;;;;;6.57;4.00;;;;;;;13.95;46.16;101993.81;5037184;28;20473;-58
2021/10/18 05:17:52;;;;;;;8.77;4.80;;;;;;;13.96;47.11;101990.13;5018894;28;20022;-58
2021/10/18 05:20:17;;;;;;;9.60;5.18;;;;;;;13.96;46.43;101989.25;5035480;28;20052;-58
2021/10/18 05:22:43;;;;;;;10.43;5.22;;;;;;;13.94;46.88;101991.22;5035593;28;20026;-58
2021/10/18 05:25:09;;;;;;;10.43;5.68;;;;;;;13.93;46.42;101989.53;5035538;28;20108;-58
2021/10/18 05:27:36;;;;;;;9.55;4.93;;;;;;;13.92;46.76;101982.41;5035738;28;20532;-58
2021/10/18 05:30:03;;;;;;;9.60;5.07;;;;;;;13.91;46.95;101980.69;5035431;28;20117;-58
2021/10/18 05:32:28;;;;;;;8.48;4.55;;;;;;;13.90;46.50;101979.00;5035251;28;20025;-58
2021/10/18 05:34:53;;;;;;;11.88;4.45;;;;;;;13.87;46.47;101979.22;5035283;28;20033;-59
2021/10/18 05:37:18;;;;;;;8.38;4.78;;;;;;;13.85;46.31;101981.16;5035755;28;20041;-58
2021/10/18 05:39:44;;;;;;;8.57;4.20;;;;;;;13.89;47.09;101993.44;5035287;28;20070;-58
2021/10/18 05:42:09;;;;;;;10.77;5.28;;;;;;;13.88;46.29;101983.63;5035217;28;20113;-58
2021/10/18 05:44:34;;;;;;;10.30;5.38;;;;;;;13.88;46.36;101981.78;5036098;28;20021;-58
2021/10/18 05:47:00;;;;;;;11.57;5.15;;;;;;;13.83;47.27;101975.91;5035171;28;20359;-59
2021/10/18 05:49:25;;;;;;;8.98;5.28;;;;;;;13.88;46.12;101986.31;5034191;28;20065;-58
2021/10/18 05:51:51;;;;;;;8.90;5.20;;;;;;;13.88;46.97;101991.69;5034954;28;20064;-59
2021/10/18 05:54:16;;;;;;;11.00;5.60;;;;;;;13.90;45.94;101989.78;5035068;28;20033;-58
2021/10/18 05:56:42;;;;;;;15.80;7.63;;;;;;;13.80;46.03;101972.59;5034739;28;20387;-58
2021/10/18 05:59:07;;;;;;;16.20;7.20;;;;;;;13.92;46.38;101999.44;5034884;28;20036;-58
2021/10/18 06:01:32;;;;;;;12.57;7.80;;;;;;;13.95;46.86;102007.28;5034666;28;20053;-57
2021/10/18 06:03:59;;;;;;;14.95;6.28;;;;;;;13.97;46.88;102001.75;5016885;28;20028;-58
2021/10/18 06:06:25;;;;;;;12.73;6.43;;;;;;;13.97;47.02;102012.53;5034863;28;20160;-58
2021/10/18 06:08:50;;;;;;;11.43;6.25;;;;;;;13.98;46.82;102014.25;5034562;28;20057;-58
2021/10/18 06:11:16;;;;;;;8.45;5.35;;;;;;;13.97;45.80;102008.00;5034711;28;20122;-57
2021/10/18 06:13:42;;;;;;;8.85;4.05;;;;;;;13.96;46.92;102008.09;5034652;28;20029;-57
2021/10/18 06:16:08;;;;;;;11.35;5.25;;;;;;;13.93;46.10;102005.69;5034601;28;20040;-57
2021/10/18 06:18:33;;;;;;;8.85;4.70;;;;;;;13.91;45.96;102002.22;5034533;28;20385;-58
2021/10/18 06:20:58;;;;;;;8.82;5.13;;;;;;;13.87;46.26;102003.47;5034718;28;20044;-58
2021/10/18 06:23:24;;;;;;;7.63;4.38;;;;;;;13.89;46.53;102013.16;5034424;28;20026;-58
2021/10/18 06:25:50;;;;;;;9.27;4.88;;;;;;;13.91;46.15;102007.63;5034378;28;20028;-58
2021/10/18 06:28:16;;;;;;;10.20;5.15;;;;;;;13.92;46.56;102012.91;5034440;28;20057;-58
2021/10/18 06:30:41;;;;;;;9.77;4.88;;;;;;;14.02;46.88;102021.09;5039323;28;20086;-57
2021/10/18 06:33:07;;;;;;;9.10;5.57;;;;;;;14.05;46.69;102020.84;5052376;28;20029;-58
2021/10/18 06:35:34;;;;;;;11.00;5.38;;;;;;;14.20;46.05;102033.13;5041935;28;20035;-58
2021/10/18 06:37:59;;;;;;;10.82;5.70;;;;;;;14.30;46.15;102042.16;5039304;28;20461;-58
2021/10/18 06:40:25;;;;;;;14.30;6.47;;;;;;;14.42;45.68;102030.44;5039231;28;20031;-58
2021/10/18 06:42:51;;;;;;;13.23;5.88;;;;;;;14.52;46.64;102025.13;5042285;28;20036;-58
2021/10/18 06:45:16;;;;;;;11.15;6.03;;;;;;;14.64;45.23;102018.75;5036665;28;20029;-58
2021/10/18 06:47:42;;;;;;;11.82;6.38;;;;;;;14.76;45.12;102022.28;5040614;28;20028;-58
2021/10/18 06:50:08;;;;;;;15.30;5.60;;;;;;;14.86;46.86;102023.22;5040510;28;20430;-58
2021/10/18 06:52:37;;;;;;;12.07;6.43;;;;;;;14.96;46.65;102029.56;5041756;28;20111;-57
2021/10/18 06:55:05;;;;;;;12.05;6.05;;;;;;;15.00;45.29;102022.91;5021242;28;20084;-58
2021/10/18 06:57:31;;;;;;;13.07;5.85;;;;;;;15.16;46.17;102026.03;5039254;28;20025;-57
2021/10/18 06:59:58;;;;;;;12.23;6.35;;;;;;;15.25;45.33;102025.25;5033331;28;20414;-58
2021/10/18 07:02:23;;;;;;;11.05;5.70;;;;;;;15.33;45.96;102017.38;5038797;28;20080;-58
2021/10/18 07:04:49;;;;;;;12.93;5.97;;;;;;;15.46;46.58;102017.19;5039118;28;20472;-58
2021/10/18 07:07:14;;;;;;;10.40;6.35;;;;;;;15.61;46.01;102026.69;5038849;28;20053;-58
2021/10/18 07:09:39;;;;;;;9.80;5.60;;;;;;;15.70;45.48;102021.38;5040077;28;20501;-58
2021/10/18 07:12:05;;;;;;;10.70;5.03;;;;;;;15.76;45.09;102017.28;5040588;28;20029;-58
2021/10/18 07:14:30;;;;;;;15.85;6.55;;;;;;;15.91;46.54;102026.75;5041598;28;20087;-58
2021/10/18 07:16:56;;;;;;;9.88;5.78;;;;;;;15.99;46.10;102035.03;5041583;28;20528;-58
2021/10/18 07:19:21;;;;;;;11.52;6.53;;;;;;;16.10;45.12;102032.25;5038828;28;20542;-58
2021/10/18 07:21:47;;;;;;;9.88;5.57;;;;;;;16.19;46.24;102023.31;5040921;28;20025;-58
2021/10/18 07:24:13;;;;;;;13.68;6.40;;;;;;;16.32;45.61;102025.78;5039720;28;20083;-58
2021/10/18 07:26:39;;;;;;;15.80;7.05;;;;;;;16.44;45.25;102034.66;5041018;28;20021;-58
2021/10/18 07:29:04;;;;;;;12.80;6.93;;;;;;;16.54;45.30;102035.56;5041476;28;20029;-58
2021/10/18 07:31:29;;;;;;;14.73;7.15;;;;;;;16.61;45.41;102034.84;5026126;28;20021;-58
2021/10/18 07:34:01;;;;;;;13.80;6.57;;;;;;;16.69;46.68;102032.34;5038991;28;20082;-58
2021/10/18 07:36:28;;;;;;;11.25;6.18;;;;;;;16.85;46.15;102035.34;5040824;28;20017;-58
2021/10/18 07:38:55;;;;;;;16.92;7.20;;;;;;;16.97;46.21;102036.09;5024301;28;20497;-58
2021/10/18 07:41:20;;;;;;;15.15;6.70;;;;;;;17.07;46.24;102036.94;5038309;28;20017;-58
2021/10/18 07:43:46;;;;;;;13.35;6.68;;;;;;;17.11;46.17;102032.97;5040435;28;20084;-58
2021/10/18 07:46:12;;;;;;;18.10;7.90;;;;;;;17.21;45.83;102030.25;5036122;28;20028;-58
2021/10/18 07:48:37;;;;;;;12.85;6.55;;;;;;;17.26;45.66;102026.09;5035513;28;20031;-58
2021/10/18 07:51:03;;;;;;;15.77;8.88;;;;;;;17.33;46.46;102031.81;5037273;28;20059;-58
2021/10/18 07:53:28;;;;;;;13.68;7.40;;;;;;;17.42;45.79;102030.94;5037085;28;20066;-58
2021/10/18 07:55:53;;;;;;;14.38;7.45;;;;;;;17.52;45.56;102020.97;5038764;28;20029;-58
2021/10/18 07:58:20;;;;;;;16.83;7.53;;;;;;;17.69;45.46;102039.22;5044217;28;20028;-58
2021/10/18 08:00:46;;;;;;;16.30;7.68;;;;;;;17.82;45.94;102038.91;5043019;28;20048;-58
2021/10/18 08:03:11;;;;;;;15.40;6.47;;;;;;;17.99;45.59;102036.28;5035431;28;20505;-58
2021/10/18 08:05:36;;;;;;;11.70;6.55;;;;;;;18.15;44.98;102032.94;5041520;28;20370;-58
2021/10/18 08:08:03;;;;;;;13.52;6.35;;;;;;;18.25;44.81;102031.06;5037417;28;20018;-58
2021/10/18 08:10:29;;;;;;;11.45;6.57;;;;;;;18.39;44.68;102033.28;5039339;28;20045;-58
2021/10/18 08:12:56;;;;;;;12.38;6.10;;;;;;;18.53;45.34;102032.81;5035295;28;20114;-58
2021/10/18 08:15:22;;;;;;;12.07;6.70;;;;;;;18.68;45.46;102038.56;5051557;28;20048;-58
2021/10/18 08:17:48;;;;;;;10.02;6.60;;;;;;;18.83;44.93;102031.63;5057592;28;20107;-58
2021/10/18 08:20:14;;;;;;;13.70;6.53;;;;;;;19.00;44.68;102027.19;5055415;28;20029;-59
2021/10/18 08:22:40;;;;;;;14.50;7.03;;;;;;;19.23;45.16;102033.03;5054324;28;20020;-59
2021/10/18 08:25:06;;;;;;;13.77;6.30;;;;;;;19.43;44.31;102038.16;5053566;28;20036;-59
2021/10/18 08:27:31;;;;;;;15.77;7.57;;;;;;;19.61;44.14;102027.25;5054541;28;20025;-58
2021/10/18 08:29:57;;;;;;;13.23;6.30;;;;;;;19.82;44.34;102035.91;5054505;28;20028;-58
2021/10/18 08:32:22;;;;;;;11.90;6.63;;;;;;;19.96;44.05;102032.59;5054161;28;20023;-58
2021/10/18 08:34:47;;;;;;;11.55;6.00;;;;;;;20.12;44.18;102035.44;5036464;28;20032;-58
2021/10/18 08:37:13;;;;;;;14.63;7.30;;;;;;;20.31;44.12;102027.06;5053913;28;20462;-59
2021/10/18 08:42:21;;;;;;;11.73;7.72;;;;;;;20.66;43.63;102031.44;5054174;28;20036;-61
2021/10/18 08:44:48;;;;;;;15.82;7.18;;;;;;;20.82;43.58;102025.19;5036131;28;20393;-60
2021/10/18 08:47:14;;;;;;;14.07;6.90;;;;;;;20.95;43.43;102031.00;5054142;28;20527;-60
2021/10/18 08:49:40;;;;;;;14.20;7.32;;;;;;;21.04;43.27;102019.09;5036121;28;20118;-60
2021/10/18 08:52:05;;;;;;;14.45;7.88;;;;;;;21.24;42.84;102025.97;5053474;28;20025;-60
2021/10/18 08:54:31;;;;;;;18.80;6.93;;;;;;;21.45;42.46;102033.63;5053763;28;20017;-60
2021/10/18 08:56:57;;;;;;;11.18;6.70;;;;;;;21.65;42.94;102028.69;5035584;28;20048;-60
2021/10/18 08:59:24;;;;;;;16.60;6.53;;;;;;;21.83;42.70;102038.38;5053060;28;20539;-60
2021/10/18 09:01:51;;;;;;;17.30;7.18;;;;;;;21.95;42.87;102025.25;5043060;28;20717;-59
2021/10/18 20:56:46;;;;;;;6.40;3.80;;;;;;;22.13;44.36;101755.69;5133065;27;20677;-61
2021/10/18 20:59:11;;;;;;;8.43;4.15;;;;;;;22.16;44.56;101771.69;5132431;28;20076;-60
2021/10/18 21:01:37;;;;;;;7.65;4.10;;;;;;;22.13;44.28;101761.16;5132233;27;20034;-63
2021/10/18 21:04:03;;;;;;;5.95;3.88;;;;;;;22.12;43.60;101762.16;5113694;28;20028;-59
2021/10/18 21:06:28;;;;;;;7.65;4.00;;;;;;;22.09;44.30;101754.34;5112080;28;20024;-46
2021/10/18 21:08:54;;;;;;;8.05;4.32;;;;;;;22.12;44.19;101764.91;5112522;28;20031;-45
2021/10/18 21:11:20;;;;;;;7.72;4.03;;;;;;;22.12;43.81;101773.09;5114069;28;20028;-44
2021/10/18 21:13:46;;;;;;;6.07;4.28;;;;;;;22.13;44.67;101771.22;5113194;28;20024;-44
2021/10/18 21:16:11;;;;;;;6.03;4.35;;;;;;;22.13;43.87;101772.06;5113740;28;20153;-45
2021/10/18 21:18:37;;;;;;;6.65;4.07;;;;;;;22.14;44.61;101771.00;5113700;28;20043;-43
2021/10/18 21:21:03;;;;;;;6.97;3.97;;;;;;;22.14;44.66;101779.19;5113256;28;20024;-44
2021/10/18 21:23:28;;;;;;;6.53;3.88;;;;;;;22.15;44.02;101780.91;5114028;28;20031;-44
2021/10/18 21:25:56;;;;;;;7.47;3.90;;;;;;;22.14;44.79;101779.19;5113391;28;20092;-47
2021/10/18 21:28:25;;;;;;;7.60;4.05;;;;;;;22.14;44.23;101772.91;5112974;28;20028;-56
2021/10/18 21:33:25;;;;;;;10.30;3.78;;;;;;;22.16;44.72;101777.16;5149349;22;20112;-62
2021/10/18 21:35:51;;;;;;;6.90;3.97;;;;;;;22.19;44.75;101785.00;5009561;28;20034;-62
2021/10/18 21:38:16;;;;;;;7.72;3.83;;;;;;;22.18;44.54;101763.31;5011108;28;20460;-59
2021/10/18 21:40:42;;;;;;;8.18;4.07;;;;;;;22.19;43.77;101765.03;5011164;28;20030;-59
2021/10/18 21:43:08;;;;;;;6.43;3.47;;;;;;;22.13;44.50;101757.56;5010786;28;20030;-60
2021/10/18 21:45:34;;;;;;;9.48;4.40;;;;;;;22.14;43.77;101757.38;4993202;28;20113;-60
2021/10/18 21:47:59;;;;;;;5.38;3.55;;;;;;;22.16;44.73;101755.31;5010647;28;20037;-60
2021/10/18 21:50:24;;;;;;;4.80;3.35;;;;;;;22.17;44.21;101753.41;5010351;28;20057;-60
2021/10/18 21:52:50;;;;;;;6.50;4.00;;;;;;;22.16;44.65;101758.06;5009837;28;20038;-61
2021/10/18 21:55:15;;;;;;;9.75;4.22;;;;;;;22.11;44.11;101741.34;5007752;28;20105;-61
2021/10/18 21:57:41;;;;;;;5.32;3.95;;;;;;;22.13;44.39;101755.69;5008570;28;20532;-61
2021/10/18 22:00:12;;;;;;;4.93;4.03;;;;;;;22.09;43.93;101743.41;5009354;28;20022;-60
2021/10/18 22:02:38;;;;;;;9.52;4.35;;;;;;;22.11;44.19;101751.44;5007172;28;20026;-60
2021/10/18 22:05:05;;;;;;;6.78;4.03;;;;;;;22.12;44.65;101747.66;5009020;28;20073;-60
2021/10/18 22:07:30;;;;;;;8.23;4.30;;;;;;;22.13;44.97;101743.91;4998178;28;20018;-59
2021/10/18 22:09:55;;;;;;;8.48;3.90;;;;;;;22.15;44.16;101742.69;4994368;28;20026;-60
2021/10/18 22:12:21;;;;;;;7.35;4.50;;;;;;;22.15;44.62;101742.69;4994503;28;20030;-60
2021/10/18 22:14:46;;;;;;;5.47;3.75;;;;;;;22.14;44.43;101746.44;4995748;28;20080;-59
2021/10/18 22:17:11;;;;;;;7.93;4.53;;;;;;;22.14;44.81;101741.00;4995539;28;20037;-60
2021/10/18 22:19:37;;;;;;;8.27;4.07;;;;;;;22.14;43.97;101738.25;4994045;28;20045;-60
2021/10/18 22:22:03;;;;;;;7.60;3.92;;;;;;;22.11;43.85;101735.06;4995952;28;20458;-60
2021/10/18 22:24:29;;;;;;;7.70;3.90;;;;;;;22.11;44.94;101732.34;4995776;28;20037;-60
2021/10/18 22:26:54;;;;;;;7.28;4.25;;;;;;;22.12;44.00;101726.69;4972884;28;20056;-60
2021/10/18 22:29:20;;;;;;;8.13;4.38;;;;;;;22.15;44.86;101726.31;4995458;28;20030;-59
2021/10/18 22:31:45;;;;;;;7.32;4.18;;;;;;;22.13;44.42;101720.22;4998457;28;20080;-59
2021/10/18 22:34:11;;;;;;;7.57;4.15;;;;;;;22.20;44.15;101720.31;5004262;28;20041;-60
2021/10/18 22:36:36;;;;;;;9.02;4.00;;;;;;;22.19;44.41;101715.91;5006004;28;20485;-59
2021/10/18 22:39:03;;;;;;;6.45;4.13;;;;;;;22.21;43.98;101722.88;5005215;28;20033;-59
2021/10/18 22:41:28;;;;;;;5.95;3.72;;;;;;;22.23;44.85;101720.78;5021333;28;20026;-61
2021/10/18 22:43:53;;;;;;;10.70;3.65;;;;;;;22.23;44.67;101717.22;5002895;28;20117;-60
2021/10/18 22:46:19;;;;;;;9.02;3.95;;;;;;;22.22;44.29;101724.53;5005668;28;20397;-59
2021/10/18 22:48:44;;;;;;;7.72;4.38;;;;;;;22.20;44.68;101726.63;5004066;28;20038;-61
2021/10/18 22:51:12;;;;;;;5.50;3.92;;;;;;;22.19;45.00;101722.22;5003745;28;20478;-60
2021/10/18 22:53:37;;;;;;;7.80;4.50;;;;;;;22.20;44.95;101723.88;5003151;28;20102;-59
2021/10/18 22:56:02;;;;;;;5.93;4.35;;;;;;;22.23;44.47;101722.66;5004852;28;20034;-59
2021/10/18 22:58:28;;;;;;;8.43;4.30;;;;;;;22.23;44.03;101718.06;5004576;28;20030;-60
2021/10/18 23:00:53;;;;;;;5.85;3.83;;;;;;;22.21;44.08;101711.94;5004493;28;20090;-60
2021/10/18 23:03:18;;;;;;;7.13;3.88;;;;;;;22.24;44.55;101714.31;5002970;28;20026;-60
2021/10/18 23:05:44;;;;;;;7.95;4.63;;;;;;;22.24;44.97;101708.84;5003144;28;20033;-61
2021/10/18 23:08:09;;;;;;;7.43;3.83;;;;;;;22.25;45.02;101710.53;5014280;28;20030;-60
2021/10/18 23:10:35;;;;;;;7.05;3.88;;;;;;;22.20;44.85;101707.50;5015959;28;20076;-61
2021/10/18 23:13:00;;;;;;;8.20;4.22;;;;;;;22.24;45.15;101705.28;5016033;28;20405;-60